createdAt,value
2023-01-17T00:00:04.823Z,24.05
2023-01-17T00:02:35.517Z,24.04
2023-01-17T00:05:25.520Z,24.01
2023-01-17T00:08:14.377Z,23.98
2023-01-17T00:10:44.893Z,24.00
2023-01-17T00:13:15.288Z,23.98
2023-01-17T00:15:45.053Z,23.97
2023-01-17T00:18:16.606Z,23.94
2023-01-17T00:21:05.147Z,23.91
2023-01-17T00:23:54.199Z,23.93
2023-01-17T00:26:24.597Z,23.93
2023-01-17T00:28:54.288Z,23.89
2023-01-17T00:31:24.309Z,23.81
2023-01-17T00:33:54.731Z,23.84
2023-01-17T00:36:25.880Z,23.84
2023-01-17T00:38:55.804Z,23.88
2023-01-17T00:41:25.333Z,23.82
2023-01-17T00:44:13.474Z,23.87
2023-01-17T00:47:03.282Z,23.87
2023-01-17T00:49:52.385Z,23.84
2023-01-17T00:52:41.595Z,23.87
2023-01-17T00:55:30.236Z,23.82
2023-01-17T00:58:19.240Z,23.77
2023-01-17T01:01:08.820Z,23.74
2023-01-17T01:03:57.776Z,23.77
2023-01-17T01:06:47.723Z,23.68
2023-01-17T01:09:37.769Z,23.70
2023-01-17T01:12:27.017Z,23.67
2023-01-17T01:15:15.508Z,23.60
2023-01-17T01:18:03.723Z,23.51
2023-01-17T01:20:52.922Z,23.49
2023-01-17T01:23:43.010Z,23.50
2023-01-17T01:26:31.981Z,23.47
2023-01-17T01:29:20.160Z,23.46
2023-01-17T01:32:09.162Z,23.49
2023-01-17T01:34:40.343Z,23.45
2023-01-17T01:37:10.507Z,23.43
2023-01-17T01:39:40.240Z,23.46
2023-01-17T01:42:17.396Z,23.42
2023-01-17T01:44:57.172Z,23.45
2023-01-17T01:47:37.372Z,23.42
2023-01-17T01:50:11.648Z,23.45
2023-01-17T01:52:46.507Z,23.49
2023-01-17T01:55:30.404Z,23.46
2023-01-17T01:58:05.820Z,23.40
2023-01-17T02:00:39.802Z,23.37
2023-01-17T02:03:16.503Z,23.33
2023-01-17T02:05:48.387Z,23.30
2023-01-17T02:08:22.086Z,23.31
2023-01-17T02:10:53.590Z,23.33
2023-01-17T02:13:25.986Z,23.31
2023-01-17T02:16:16.004Z,23.27
2023-01-17T02:18:54.572Z,23.18
2023-01-17T02:21:27.340Z,23.26
2023-01-17T02:24:13.202Z,23.27
2023-01-17T02:26:51.655Z,23.34
2023-01-17T02:29:46.468Z,23.31
2023-01-17T02:32:37.158Z,23.30
2023-01-17T02:35:29.313Z,23.31
2023-01-17T02:38:04.897Z,23.36
2023-01-17T02:40:42.959Z,23.27
2023-01-17T02:43:17.410Z,23.23
2023-01-17T02:45:49.898Z,23.24
2023-01-17T02:48:26.451Z,23.22
2023-01-17T02:51:23.913Z,23.16
2023-01-17T02:54:12.061Z,23.13
2023-01-17T02:57:13.949Z,23.18
2023-01-17T03:00:07.302Z,23.13
2023-01-17T03:03:18.408Z,23.13
2023-01-17T03:05:57.431Z,23.08
2023-01-17T03:08:29.491Z,23.09
2023-01-17T03:11:03.000Z,23.03
2023-01-17T03:13:33.925Z,22.96
2023-01-17T03:16:11.918Z,22.94
2023-01-17T03:18:43.522Z,22.84
2023-01-17T03:21:14.381Z,22.73
2023-01-17T03:23:46.300Z,22.62
2023-01-17T03:26:16.784Z,22.62
2023-01-17T03:28:47.121Z,22.55
2023-01-17T03:31:19.026Z,22.40
2023-01-17T03:33:50.018Z,22.30
2023-01-17T03:36:21.419Z,22.16
2023-01-17T03:38:52.078Z,22.04
2023-01-17T03:41:24.015Z,21.97
2023-01-17T03:43:54.112Z,21.86
2023-01-17T03:46:28.857Z,21.79
2023-01-17T03:49:00.852Z,21.71
2023-01-17T03:51:32.778Z,21.62
2023-01-17T03:54:02.923Z,21.52
2023-01-17T03:56:32.654Z,21.46
2023-01-17T03:59:03.532Z,21.44
2023-01-17T04:01:34.551Z,21.38
2023-01-17T04:04:04.342Z,21.37
2023-01-17T04:06:36.221Z,21.35
2023-01-17T04:09:07.588Z,21.35
2023-01-17T04:11:39.017Z,21.34
2023-01-17T04:14:09.000Z,21.31
2023-01-17T04:16:40.423Z,21.27
2023-01-17T04:19:15.358Z,21.21
2023-01-17T04:21:46.159Z,21.17
2023-01-17T04:24:17.898Z,21.12
2023-01-17T04:26:48.223Z,21.12
2023-01-17T04:29:18.588Z,21.08
2023-01-17T04:31:50.873Z,21.07
2023-01-17T04:34:20.860Z,21.03
2023-01-17T04:36:51.013Z,21.00
2023-01-17T04:39:21.479Z,20.96
2023-01-17T04:41:51.503Z,20.90
2023-01-17T04:44:22.355Z,20.88
2023-01-17T04:46:52.477Z,20.87
2023-01-17T04:49:23.586Z,20.83
2023-01-17T04:51:53.865Z,20.76
2023-01-17T04:54:24.862Z,20.76
2023-01-17T04:56:56.457Z,20.72
2023-01-17T04:59:26.405Z,20.67
2023-01-17T05:01:56.172Z,20.65
2023-01-17T05:04:26.841Z,20.70
2023-01-17T05:06:56.579Z,20.76
2023-01-17T05:09:27.653Z,20.77
2023-01-17T05:11:59.508Z,20.74
2023-01-17T05:14:30.282Z,20.73
2023-01-17T05:17:00.624Z,20.73
2023-01-17T05:19:31.577Z,20.73
2023-01-17T05:22:04.946Z,20.76
2023-01-17T05:24:34.956Z,20.72
2023-01-17T05:27:04.972Z,20.66
2023-01-17T05:29:35.371Z,20.62
2023-01-17T05:32:05.801Z,20.55
2023-01-17T05:34:36.201Z,20.57
2023-01-17T05:37:05.900Z,20.56
2023-01-17T05:39:36.048Z,20.45
2023-01-17T05:42:06.483Z,20.43
2023-01-17T05:44:37.370Z,20.45
2023-01-17T05:47:07.765Z,20.42
2023-01-17T05:49:38.598Z,20.36
2023-01-17T05:52:09.709Z,20.36
2023-01-17T05:54:40.996Z,20.35
2023-01-17T05:57:11.501Z,20.32
2023-01-17T05:59:41.214Z,20.30
2023-01-17T06:02:12.975Z,20.29
2023-01-17T06:04:44.066Z,20.28
2023-01-17T06:07:14.038Z,20.25
2023-01-17T06:09:43.793Z,20.25
2023-01-17T06:12:14.674Z,20.22
2023-01-17T06:14:45.962Z,20.22
2023-01-17T06:17:16.833Z,20.16
2023-01-17T06:19:46.755Z,20.14
2023-01-17T06:22:17.215Z,20.11
2023-01-17T06:24:47.380Z,20.08
2023-01-17T06:27:17.588Z,20.05
2023-01-17T06:29:47.421Z,20.07
2023-01-17T06:32:17.417Z,20.07
2023-01-17T06:34:47.817Z,20.07
2023-01-17T06:37:18.563Z,20.02
2023-01-17T06:39:48.996Z,19.99
2023-01-17T06:42:19.712Z,19.94
2023-01-17T06:44:49.427Z,19.97
2023-01-17T06:47:20.135Z,19.94
2023-01-17T06:49:51.144Z,19.92
2023-01-17T06:52:21.280Z,19.89
2023-01-17T06:54:50.969Z,19.88
2023-01-17T06:57:21.359Z,19.87
2023-01-17T06:59:51.063Z,19.84
2023-01-17T07:02:21.811Z,19.87
2023-01-17T07:04:52.636Z,19.84
2023-01-17T07:07:23.745Z,19.79
2023-01-17T07:09:53.536Z,19.79
2023-01-17T07:12:24.184Z,19.79
2023-01-17T07:14:54.723Z,19.79
2023-01-17T07:17:27.285Z,19.78
2023-01-17T07:19:58.791Z,19.75
2023-01-17T07:22:29.480Z,19.77
2023-01-17T07:25:04.902Z,19.75
2023-01-17T07:27:35.486Z,19.74
2023-01-17T07:30:06.020Z,19.71
2023-01-17T07:32:36.441Z,19.68
2023-01-17T07:35:08.159Z,19.68
2023-01-17T07:37:40.537Z,19.68
2023-01-17T07:40:11.466Z,19.64
2023-01-17T07:42:42.338Z,19.66
2023-01-17T07:45:15.460Z,19.67
2023-01-17T07:47:46.233Z,19.66
2023-01-17T07:50:16.262Z,19.63
2023-01-17T07:52:51.835Z,19.63
2023-01-17T07:55:21.860Z,19.58
2023-01-17T07:57:52.899Z,19.56
2023-01-17T08:00:24.459Z,19.54
2023-01-17T08:03:01.804Z,19.53
2023-01-17T08:05:32.582Z,19.53
2023-01-17T08:08:03.633Z,19.51
2023-01-17T08:10:34.294Z,19.47
2023-01-17T08:13:04.115Z,19.45
2023-01-17T08:15:34.486Z,19.49
2023-01-17T08:18:04.431Z,19.50
2023-01-17T08:20:35.116Z,19.50
2023-01-17T08:23:06.389Z,19.47
2023-01-17T08:25:36.570Z,19.45
2023-01-17T08:28:07.856Z,19.43
2023-01-17T08:30:44.843Z,19.47
2023-01-17T08:33:15.216Z,19.50
2023-01-17T08:35:55.912Z,19.46
2023-01-17T08:38:27.053Z,19.40
2023-01-17T08:41:02.756Z,19.43
2023-01-17T08:43:33.918Z,19.47
2023-01-17T08:46:04.653Z,19.50
2023-01-17T08:48:34.365Z,19.50
2023-01-17T08:51:05.299Z,19.51
2023-01-17T08:53:36.071Z,19.56
2023-01-17T08:56:08.393Z,19.61
2023-01-17T08:58:38.902Z,19.61
2023-01-17T09:01:10.070Z,19.70
2023-01-17T09:03:41.248Z,19.71
2023-01-17T09:06:16.287Z,19.75
2023-01-17T09:08:50.722Z,19.79
2023-01-17T09:11:20.958Z,19.84
2023-01-17T09:13:51.857Z,19.87
2023-01-17T09:16:23.222Z,19.89
2023-01-17T09:19:00.562Z,19.99
2023-01-17T09:21:30.659Z,20.05
2023-01-17T09:24:00.702Z,20.19
2023-01-17T09:26:32.720Z,20.25
2023-01-17T09:29:02.763Z,20.32
2023-01-17T09:31:32.615Z,20.36
2023-01-17T09:34:02.974Z,20.40
2023-01-17T09:36:35.076Z,20.50
2023-01-17T09:39:06.409Z,20.60
2023-01-17T09:41:48.520Z,20.70
2023-01-17T09:44:21.178Z,20.90
2023-01-17T09:46:54.473Z,21.63
2023-01-17T09:49:37.176Z,22.07
2023-01-17T09:52:08.747Z,22.03
2023-01-17T09:54:44.047Z,22.14
2023-01-17T09:57:26.132Z,22.03
2023-01-17T10:00:19.645Z,22.24
2023-01-17T10:03:22.798Z,22.82
2023-01-17T10:06:05.355Z,25.57
2023-01-17T10:08:58.268Z,26.07
2023-01-17T10:12:07.403Z,26.64
2023-01-17T10:14:47.131Z,24.67
2023-01-17T10:17:32.620Z,24.05
2023-01-17T10:20:06.391Z,23.84
2023-01-17T10:23:17.620Z,23.87
2023-01-17T10:25:53.554Z,23.88
2023-01-17T10:28:39.769Z,23.94
2023-01-17T10:31:15.727Z,24.18
2023-01-17T10:34:04.985Z,24.42
2023-01-17T10:36:41.783Z,24.75
2023-01-17T10:39:24.962Z,25.15
2023-01-17T10:41:57.610Z,25.88
2023-01-17T10:44:52.130Z,26.48
2023-01-17T10:47:24.708Z,26.58
2023-01-17T10:50:04.187Z,26.58
2023-01-17T10:52:54.383Z,26.84
2023-01-17T10:55:41.392Z,26.62
2023-01-17T10:58:14.898Z,26.81
2023-01-17T11:01:04.259Z,26.75
2023-01-17T11:03:35.862Z,26.67
2023-01-17T11:06:20.046Z,26.96
2023-01-17T11:08:58.890Z,27.16
2023-01-17T11:11:34.884Z,27.69
2023-01-17T11:14:14.773Z,27.94
2023-01-17T11:16:46.211Z,28.21
2023-01-17T11:19:29.788Z,28.75
2023-01-17T11:22:07.761Z,29.20
2023-01-17T11:24:49.045Z,29.81
2023-01-17T11:27:35.048Z,29.69
2023-01-17T11:30:21.925Z,30.33
2023-01-17T11:33:09.105Z,29.90
2023-01-17T11:35:47.714Z,30.08
2023-01-17T11:38:23.470Z,30.20
2023-01-17T11:41:14.032Z,30.32
2023-01-17T11:43:59.879Z,30.54
2023-01-17T11:46:31.896Z,30.24
2023-01-17T11:49:03.563Z,30.41
2023-01-17T11:51:36.640Z,30.92
2023-01-17T11:54:41.070Z,30.85
2023-01-17T11:57:30.399Z,31.26
2023-01-17T12:00:31.845Z,31.45
2023-01-17T12:03:31.069Z,31.49
2023-01-17T12:06:21.631Z,31.63
2023-01-17T12:09:10.486Z,31.54
2023-01-17T12:12:24.086Z,31.86
2023-01-17T12:15:14.453Z,31.23
2023-01-17T12:18:10.148Z,31.70
2023-01-17T12:20:50.497Z,32.11
2023-01-17T12:24:14.838Z,32.29
2023-01-17T12:26:53.026Z,32.16
2023-01-17T12:29:44.823Z,32.56
2023-01-17T12:32:42.868Z,32.54
2023-01-17T12:35:22.109Z,32.98
2023-01-17T12:38:04.936Z,33.20
2023-01-17T12:40:59.232Z,33.10
2023-01-17T12:43:39.165Z,33.23
2023-01-17T12:46:45.927Z,33.62
2023-01-17T12:49:40.274Z,33.91
2023-01-17T12:52:50.477Z,33.85
2023-01-17T12:55:44.809Z,33.92
2023-01-17T12:58:23.647Z,33.31
2023-01-17T13:01:21.613Z,33.85
2023-01-17T13:03:57.844Z,34.50
2023-01-17T13:07:01.871Z,34.32
2023-01-17T13:09:39.158Z,33.57
2023-01-17T13:12:15.198Z,33.80
2023-01-17T13:14:48.376Z,33.31
2023-01-17T13:17:40.003Z,33.14
2023-01-17T13:20:33.024Z,33.72
2023-01-17T13:23:13.883Z,33.95
2023-01-17T13:26:03.255Z,34.71
2023-01-17T13:29:02.956Z,34.01
2023-01-17T13:32:08.593Z,33.64
2023-01-17T13:35:03.145Z,33.12
2023-01-17T13:37:53.549Z,33.81
2023-01-17T13:40:38.561Z,34.13
2023-01-17T13:43:25.068Z,34.35
2023-01-17T13:45:58.305Z,32.76
2023-01-17T13:48:31.091Z,32.82
2023-01-17T13:51:03.607Z,33.13
2023-01-17T13:53:40.997Z,34.25
2023-01-17T13:56:16.078Z,34.96
2023-01-17T13:58:55.938Z,33.81
2023-01-17T14:01:26.518Z,33.85
2023-01-17T14:03:57.590Z,33.46
2023-01-17T14:06:47.541Z,33.53
2023-01-17T14:09:31.799Z,32.73
2023-01-17T14:12:12.411Z,32.69
2023-01-17T14:14:46.234Z,32.79
2023-01-17T14:17:27.854Z,33.19
2023-01-17T14:20:18.628Z,32.98
2023-01-17T14:22:59.821Z,33.65
2023-01-17T14:25:31.383Z,34.20
2023-01-17T14:28:27.608Z,33.07
2023-01-17T14:30:59.340Z,33.50
2023-01-17T14:33:39.972Z,35.30
2023-01-17T14:36:38.054Z,34.50
2023-01-17T14:39:25.855Z,35.14
2023-01-17T14:41:56.410Z,34.71
2023-01-17T14:44:26.664Z,33.74
2023-01-17T14:46:59.411Z,33.12
2023-01-17T14:49:29.990Z,33.04
2023-01-17T14:52:05.113Z,33.02
2023-01-17T14:54:37.903Z,32.79
2023-01-17T14:57:29.619Z,32.75
2023-01-17T15:00:21.218Z,32.75
2023-01-17T15:02:53.632Z,33.33
2023-01-17T15:05:27.443Z,33.95
2023-01-17T15:07:59.929Z,33.84
2023-01-17T15:10:35.099Z,33.75
2023-01-17T15:13:11.124Z,33.19
2023-01-17T15:15:43.068Z,34.09
2023-01-17T15:18:20.644Z,34.74
2023-01-17T15:20:59.002Z,34.77
2023-01-17T15:23:42.011Z,35.00
2023-01-17T15:26:16.811Z,34.82
2023-01-17T15:28:48.426Z,34.88
2023-01-17T15:31:40.722Z,35.93
2023-01-17T15:34:35.477Z,36.24
2023-01-17T15:37:36.939Z,36.13
2023-01-17T15:40:28.068Z,33.85
2023-01-17T15:43:02.466Z,33.09
2023-01-17T15:45:35.125Z,33.23
2023-01-17T15:48:43.324Z,34.04
2023-01-17T15:51:15.056Z,34.63
2023-01-17T15:53:46.504Z,35.72
2023-01-17T15:56:36.234Z,36.13
2023-01-17T15:59:44.614Z,36.07
2023-01-17T16:02:46.061Z,36.41
2023-01-17T16:05:34.476Z,36.74
2023-01-17T16:08:06.097Z,36.19
2023-01-17T16:10:39.278Z,35.85
2023-01-17T16:13:12.674Z,35.83
2023-01-17T16:15:42.809Z,36.36
2023-01-17T16:18:27.033Z,35.38
2023-01-17T16:21:02.781Z,34.13
2023-01-17T16:23:33.118Z,33.04
2023-01-17T16:26:02.823Z,33.09
2023-01-17T16:28:34.280Z,34.84
2023-01-17T16:31:04.733Z,34.56
2023-01-17T16:33:34.809Z,34.43
2023-01-17T16:36:05.151Z,34.45
2023-01-17T16:38:34.965Z,34.28
2023-01-17T16:41:06.989Z,34.42
2023-01-17T16:43:37.505Z,32.93
2023-01-17T16:46:08.077Z,32.68
2023-01-17T16:48:39.827Z,32.39
2023-01-17T16:51:10.664Z,33.06
2023-01-17T16:53:40.689Z,34.38
2023-01-17T16:56:14.687Z,35.00
2023-01-17T16:58:45.682Z,34.77
2023-01-17T17:01:19.052Z,35.45
2023-01-17T17:03:50.121Z,34.39
2023-01-17T17:06:22.716Z,33.98
2023-01-17T17:08:52.888Z,32.86
2023-01-17T17:11:25.610Z,31.96
2023-01-17T17:13:56.852Z,31.78
2023-01-17T17:16:34.087Z,33.24
2023-01-17T17:19:09.790Z,33.16
2023-01-17T17:21:40.552Z,33.64
2023-01-17T17:24:15.966Z,34.12
2023-01-17T17:26:46.921Z,34.04
2023-01-17T17:29:17.669Z,34.70
2023-01-17T17:31:49.401Z,34.64
2023-01-17T17:34:20.323Z,34.66
2023-01-17T17:36:50.172Z,34.26
2023-01-17T17:39:20.509Z,34.09
2023-01-17T17:41:50.525Z,34.35
2023-01-17T17:44:21.930Z,35.00
2023-01-17T17:46:52.980Z,34.64
2023-01-17T17:49:24.308Z,34.25
2023-01-17T17:51:54.565Z,34.53
2023-01-17T17:54:26.073Z,34.11
2023-01-17T17:56:56.890Z,33.40
2023-01-17T17:59:28.031Z,32.79
2023-01-17T18:01:58.130Z,32.73
2023-01-17T18:04:29.156Z,32.86
2023-01-17T18:06:59.896Z,33.06
2023-01-17T18:09:30.581Z,33.14
2023-01-17T18:12:00.332Z,33.46
2023-01-17T18:14:33.940Z,33.68
2023-01-17T18:17:04.452Z,33.26
2023-01-17T18:19:39.155Z,33.53
2023-01-17T18:22:08.877Z,33.72
2023-01-17T18:24:38.770Z,33.07
2023-01-17T18:27:11.452Z,33.47
2023-01-17T18:29:42.964Z,33.06
2023-01-17T18:32:14.296Z,33.04
2023-01-17T18:34:44.838Z,33.23
2023-01-17T18:37:14.857Z,33.02
2023-01-17T18:39:45.667Z,32.87
2023-01-17T18:42:16.085Z,32.71
2023-01-17T18:44:46.564Z,33.51
2023-01-17T18:47:16.358Z,33.37
2023-01-17T18:49:46.991Z,32.92
2023-01-17T18:52:21.316Z,33.16
2023-01-17T18:54:51.677Z,32.96
2023-01-17T18:57:22.378Z,32.96
2023-01-17T18:59:53.167Z,32.78
2023-01-17T19:02:23.351Z,33.31
2023-01-17T19:04:54.246Z,33.16
2023-01-17T19:07:25.276Z,32.96
2023-01-17T19:09:55.578Z,32.66
2023-01-17T19:12:26.458Z,32.35
2023-01-17T19:14:57.384Z,32.32
2023-01-17T19:17:27.100Z,32.27
2023-01-17T19:19:57.394Z,32.08
2023-01-17T19:22:27.803Z,32.06
2023-01-17T19:24:59.579Z,31.98
2023-01-17T19:27:30.120Z,31.11
2023-01-17T19:30:00.723Z,31.33
2023-01-17T19:32:31.133Z,31.09
2023-01-17T19:35:01.562Z,30.48
2023-01-17T19:37:32.929Z,30.64
2023-01-17T19:40:03.375Z,30.13
2023-01-17T19:42:33.073Z,29.57
2023-01-17T19:45:04.042Z,30.14
2023-01-17T19:47:35.246Z,30.27
2023-01-17T19:50:09.553Z,30.08
2023-01-17T19:52:41.024Z,30.08
2023-01-17T19:55:12.044Z,29.88
2023-01-17T19:57:43.939Z,29.95
2023-01-17T20:00:15.941Z,30.03
2023-01-17T20:02:46.259Z,29.96
2023-01-17T20:05:16.224Z,29.34
2023-01-17T20:07:47.040Z,29.21
2023-01-17T20:10:18.893Z,28.89
2023-01-17T20:12:51.869Z,28.66
2023-01-17T20:15:29.379Z,28.53
2023-01-17T20:18:01.049Z,28.62
2023-01-17T20:20:36.029Z,28.79
2023-01-17T20:23:07.927Z,28.75
2023-01-17T20:25:38.198Z,28.44
2023-01-17T20:28:08.248Z,28.45
2023-01-17T20:30:39.095Z,28.27
2023-01-17T20:33:14.569Z,28.28
2023-01-17T20:35:44.487Z,28.18
2023-01-17T20:38:15.244Z,28.34
2023-01-17T20:40:46.933Z,28.35
2023-01-17T20:43:18.198Z,28.39
2023-01-17T20:45:56.803Z,28.38
2023-01-17T20:48:27.190Z,28.42
2023-01-17T20:50:57.029Z,28.18
2023-01-17T20:53:33.688Z,28.11
2023-01-17T20:56:05.208Z,28.07
2023-01-17T20:58:36.372Z,28.01
2023-01-17T21:01:08.267Z,28.25
2023-01-17T21:03:39.938Z,28.12
2023-01-17T21:06:12.515Z,28.11
2023-01-17T21:08:46.272Z,27.94
2023-01-17T21:11:20.480Z,27.84
2023-01-17T21:13:52.321Z,27.88
2023-01-17T21:16:24.087Z,27.60
2023-01-17T21:18:55.302Z,27.29
2023-01-17T21:21:30.572Z,27.32
2023-01-17T21:24:01.103Z,27.26
2023-01-17T21:26:31.337Z,27.08
2023-01-17T21:29:03.123Z,26.94
2023-01-17T21:31:36.229Z,26.85
2023-01-17T21:34:09.202Z,26.84
2023-01-17T21:36:43.836Z,26.75
2023-01-17T21:39:17.238Z,26.75
2023-01-17T21:41:50.584Z,26.70
2023-01-17T21:44:22.961Z,26.61
2023-01-17T21:46:56.360Z,26.60
2023-01-17T21:49:27.671Z,26.50
2023-01-17T21:51:58.589Z,26.44
2023-01-17T21:54:48.532Z,26.27
2023-01-17T21:57:40.420Z,26.19
2023-01-17T22:00:17.190Z,26.06
2023-01-17T22:02:50.137Z,25.97
2023-01-17T22:05:21.726Z,25.93
2023-01-17T22:08:11.994Z,25.88
2023-01-17T22:10:48.332Z,25.89
2023-01-17T22:13:21.678Z,25.89
2023-01-17T22:16:01.197Z,25.88
2023-01-17T22:18:32.502Z,25.76
2023-01-17T22:21:07.666Z,25.65
2023-01-17T22:23:40.598Z,25.57
2023-01-17T22:26:12.867Z,25.51
2023-01-17T22:28:44.147Z,25.48
2023-01-17T22:31:21.862Z,25.49
2023-01-17T22:34:03.463Z,25.41
2023-01-17T22:36:36.000Z,25.35
2023-01-17T22:39:06.298Z,25.33
2023-01-17T22:41:39.174Z,25.27
2023-01-17T22:44:10.406Z,25.25
2023-01-17T22:46:42.475Z,25.27
2023-01-17T22:49:15.232Z,25.21
2023-01-17T22:51:46.057Z,25.15
2023-01-17T22:54:17.034Z,25.13
2023-01-17T22:56:47.007Z,25.06
2023-01-17T22:59:17.693Z,25.06
2023-01-17T23:01:49.020Z,25.02
2023-01-17T23:04:19.737Z,25.00
2023-01-17T23:06:50.204Z,24.96
2023-01-17T23:09:20.459Z,24.97
2023-01-17T23:11:56.655Z,25.00
2023-01-17T23:14:53.414Z,25.04
2023-01-17T23:17:43.328Z,24.98
2023-01-17T23:20:13.659Z,24.96
2023-01-17T23:22:43.381Z,24.96
2023-01-17T23:25:15.893Z,24.91
2023-01-17T23:28:06.822Z,24.87
2023-01-17T23:30:42.360Z,24.87
2023-01-17T23:33:19.162Z,24.93
2023-01-17T23:35:49.752Z,24.91
2023-01-17T23:38:27.186Z,24.88
2023-01-17T23:41:27.541Z,24.83
2023-01-17T23:44:00.131Z,24.91
2023-01-17T23:46:31.430Z,24.97
2023-01-17T23:49:02.498Z,24.97
2023-01-17T23:51:32.727Z,24.86
2023-01-17T23:54:06.575Z,24.83
2023-01-17T23:56:37.651Z,24.76
2023-01-17T23:59:07.792Z,24.75
